Time;durP1;ratioP1;P1;durP2;ratioP2;P2;SDS_P1;SDS_P2;PMS_P1;PMS_P2;Temp;Humidity;BMP_temperature;BMP_pressure;BME280_temperature;BME280_humidity;BME280_pressure;Samples;Min_cycle;Max_cycle;Signal;HPM_P1;HPM_P2
2021/09/04 00:01:34;;;;;;;;;;;;;;;13.52;76.78;99800.94;5077149;28;20306;-71
2021/09/04 00:04:03;;;;;;;;;;;;;;;13.46;76.94;99800.19;5077217;28;19924;-71
2021/09/04 00:06:32;;;;;;;;;;;;;;;13.40;77.21;99796.81;5077142;28;19925;-71
2021/09/04 00:09:01;;;;;;;;;;;;;;;13.30;77.55;99802.03;5077000;28;19932;-71
2021/09/04 00:11:30;;;;;;;;;;;;;;;13.24;77.25;99805.53;5076975;28;19924;-71
2021/09/04 00:13:59;;;;;;;;;;;;;;;13.09;77.80;99800.53;5077348;28;19931;-71
2021/09/04 00:16:30;;;;;;;;;;;;;;;13.00;78.20;99804.84;5077240;28;19972;-71
2021/09/04 00:19:00;;;;;;;;;;;;;;;12.89;78.06;99806.63;5076856;28;19925;-71
2021/09/04 00:21:29;;;;;;;;;;;;;;;12.82;78.35;99798.16;5076836;28;20415;-71
2021/09/04 00:23:58;;;;;;;;;;;;;;;12.82;78.71;99793.03;5076784;28;20011;-71
2021/09/04 00:26:28;;;;;;;;;;;;;;;12.88;78.88;99795.56;5076759;28;19925;-71
2021/09/04 00:28:57;;;;;;;;;;;;;;;13.02;78.86;99795.44;5075511;28;19948;-71
2021/09/04 00:31:25;;;;;;;;;;;;;;;13.13;78.97;99791.94;5076364;28;19931;-71
2021/09/04 00:33:54;;;;;;;;;;;;;;;13.26;78.58;99796.09;5076180;28;19925;-71
2021/09/04 00:36:27;;;;;;;;;;;;;;;13.38;78.37;99795.97;5076641;28;19970;-71
2021/09/04 00:38:56;;;;;;;;;;;;;;;13.40;77.80;99795.94;5077011;28;19924;-71
2021/09/04 00:41:25;;;;;;;;;;;;;;;13.49;77.89;99800.97;5076486;28;19924;-71
2021/09/04 00:43:53;;;;;;;;;;;;;;;13.54;77.58;99803.50;5058365;28;20396;-71
2021/09/04 00:46:22;;;;;;;;;;;;;;;13.56;77.10;99796.63;5076380;28;20345;-71
2021/09/04 00:48:51;;;;;;;;;;;;;;;13.50;77.26;99796.69;5076366;28;19936;-71
2021/09/04 00:51:19;;;;;;;;;;;;;;;13.42;76.98;99795.06;5076243;28;19955;-71
2021/09/04 00:53:51;;;;;;;;;;;;;;;13.43;77.02;99794.22;5075925;28;19936;-71
2021/09/04 00:56:19;;;;;;;;;;;;;;;13.50;76.82;99796.69;5058428;28;19925;-71
2021/09/04 00:58:49;;;;;;;;;;;;;;;13.47;76.69;99796.72;5058666;28;19925;-71
2021/09/04 01:01:19;;;;;;;;;;;;;;;13.39;76.75;99800.22;5076533;28;19924;-71
2021/09/04 01:03:49;;;;;;;;;;;;;;;13.36;76.79;99795.13;5076035;28;20382;-71
2021/09/04 01:06:18;;;;;;;;;;;;;;;13.36;76.59;99800.25;5076003;28;19972;-71
2021/09/04 01:08:50;;;;;;;;;;;;;;;13.33;76.54;99795.16;5076066;28;19929;-71
2021/09/04 01:11:20;;;;;;;;;;;;;;;13.27;76.80;99795.22;5076311;28;19931;-71
2021/09/04 01:13:48;;;;;;;;;;;;;;;13.41;76.83;99795.09;5076118;28;20294;-71
2021/09/04 01:16:17;;;;;;;;;;;;;;;13.54;76.84;99798.34;5075868;28;19925;-71
2021/09/04 01:18:46;;;;;;;;;;;;;;;13.51;76.72;99798.41;5075821;28;20004;-71
2021/09/04 01:21:15;;;;;;;;;;;;;;;13.31;76.14;99794.34;5076030;28;19925;-71
2021/09/04 01:23:45;;;;;;;;;;;;;;;13.18;76.69;99791.91;5075682;28;20012;-71
2021/09/04 01:26:15;;;;;;;;;;;;;;;13.07;77.09;99791.16;5075632;28;19931;-70
2021/09/04 01:28:44;;;;;;;;;;;;;;;13.02;77.31;99788.59;5075610;28;19964;-71
2021/09/04 01:31:12;;;;;;;;;;;;;;;13.01;77.53;99786.88;5075832;28;20026;-71
2021/09/04 01:33:44;;;;;;;;;;;;;;;13.01;77.62;99786.88;5075456;28;19925;-71
2021/09/04 01:36:13;;;;;;;;;;;;;;;13.01;77.87;99791.16;5075536;28;19936;-71
2021/09/04 01:38:41;;;;;;;;;;;;;;;12.92;78.00;99786.97;5075386;28;19960;-71
2021/09/04 01:41:10;;;;;;;;;;;;;;;12.84;78.20;99788.75;5075350;28;19924;-71
2021/09/04 01:43:40;;;;;;;;;;;;;;;12.79;78.16;99781.09;5075036;28;19952;-71
2021/09/04 01:46:10;;;;;;;;;;;;;;;12.72;78.64;99778.59;5075323;28;20431;-71
2021/09/04 01:48:39;;;;;;;;;;;;;;;12.77;78.54;99777.72;5075273;28;19931;-71
2021/09/04 01:51:07;;;;;;;;;;;;;;;12.86;78.74;99775.94;5075061;28;19928;-71
2021/09/04 01:53:36;;;;;;;;;;;;;;;12.91;78.49;99775.03;5075137;28;19971;-71
2021/09/04 01:56:05;;;;;;;;;;;;;;;12.97;78.29;99774.13;5075107;28;20325;-71
2021/09/04 01:58:34;;;;;;;;;;;;;;;13.01;78.16;99775.78;5074991;28;20418;-70
2021/09/04 02:01:04;;;;;;;;;;;;;;;13.04;78.12;99770.66;5074934;28;19948;-71
2021/09/04 02:03:34;;;;;;;;;;;;;;;13.06;77.95;99763.81;5074942;28;19924;-71
2021/09/04 02:06:03;;;;;;;;;;;;;;;13.05;77.66;99762.94;5074766;28;19947;-71
2021/09/04 02:08:32;;;;;;;;;;;;;;;13.12;77.80;99772.31;5074816;28;19970;-71
2021/09/04 02:11:01;;;;;;;;;;;;;;;13.20;77.31;99767.94;5074969;28;19932;-71
2021/09/04 02:13:30;;;;;;;;;;;;;;;13.22;77.41;99766.22;5074970;28;20399;-70
2021/09/04 02:15:59;;;;;;;;;;;;;;;13.25;77.30;99768.75;5074727;28;20406;-71
2021/09/04 02:18:33;;;;;;;;;;;;;;;13.25;77.10;99763.63;5074621;28;19928;-70
2021/09/04 02:21:03;;;;;;;;;;;;;;;13.30;76.99;99769.56;5074624;28;19978;-71
2021/09/04 02:23:33;;;;;;;;;;;;;;;13.32;77.10;99764.41;5074856;28;19925;-71
2021/09/04 02:26:03;;;;;;;;;;;;;;;13.27;76.96;99759.34;5074775;28;20271;-72
2021/09/04 02:28:31;;;;;;;;;;;;;;;13.27;76.72;99761.91;5074791;28;20282;-72
2021/09/04 02:31:00;;;;;;;;;;;;;;;13.25;76.51;99755.94;5074293;28;20015;-72
2021/09/04 02:33:31;;;;;;;;;;;;;;;13.21;76.30;99764.53;5074373;28;20382;-72
2021/09/04 02:36:00;;;;;;;;;;;;;;;13.13;76.54;99756.06;5074299;28;20023;-72
2021/09/04 02:38:30;;;;;;;;;;;;;;;13.06;76.50;99762.13;5074313;28;20317;-72
2021/09/04 02:40:58;;;;;;;;;;;;;;;12.99;76.41;99763.00;5056444;28;19931;-72
2021/09/04 02:43:28;;;;;;;;;;;;;;;12.92;76.67;99756.25;5074259;28;19931;-72
2021/09/04 02:45:58;;;;;;;;;;;;;;;12.88;76.74;99754.56;5074160;28;20424;-72
2021/09/04 02:48:27;;;;;;;;;;;;;;;12.84;76.71;99752.88;5074210;28;19959;-72
2021/09/04 02:50:57;;;;;;;;;;;;;;;12.80;76.83;99751.22;5074049;28;19924;-72
2021/09/04 02:53:26;;;;;;;;;;;;;;;12.74;77.05;99747.00;5075096;28;19925;-72
2021/09/04 02:55:55;;;;;;;;;;;;;;;12.74;77.26;99746.16;5073495;28;19924;-72
2021/09/04 02:58:24;;;;;;;;;;;;;;;12.73;77.17;99745.31;5074065;28;19928;-72
2021/09/04 03:00:53;;;;;;;;;;;;;;;12.70;77.34;99744.47;5073991;28;19931;-72
2021/09/04 03:03:22;;;;;;;;;;;;;;;12.70;77.30;99744.47;5074003;28;19924;-72
2021/09/04 03:05:52;;;;;;;;;;;;;;;12.69;77.23;99742.78;5073897;28;19932;-72
2021/09/04 03:08:22;;;;;;;;;;;;;;;12.73;77.49;99742.75;5073951;28;19928;-72
2021/09/04 03:10:51;;;;;;;;;;;;;;;12.76;77.39;99736.75;5074194;28;19932;-72
2021/09/04 03:13:20;;;;;;;;;;;;;;;12.71;77.49;99730.81;5073873;28;20102;-72
2021/09/04 03:15:49;;;;;;;;;;;;;;;12.74;77.35;99730.81;5074790;28;20302;-72
2021/09/04 03:18:18;;;;;;;;;;;;;;;12.79;77.59;99727.31;5074084;28;20328;-72
2021/09/04 03:20:49;;;;;;;;;;;;;;;12.80;77.42;99725.59;5073872;28;19924;-72
2021/09/04 03:23:17;;;;;;;;;;;;;;;12.86;77.37;99730.66;5074160;28;20293;-72
2021/09/04 03:25:48;;;;;;;;;;;;;;;12.90;77.42;99726.38;5073752;28;20015;-72
2021/09/04 03:28:18;;;;;;;;;;;;;;;12.94;77.48;99717.78;5073840;28;19931;-71
2021/09/04 03:30:48;;;;;;;;;;;;;;;12.92;77.26;99717.81;5073744;28;20003;-71
2021/09/04 03:33:17;;;;;;;;;;;;;;;12.92;77.31;99717.81;5074058;28;20340;-70
2021/09/04 03:35:46;;;;;;;;;;;;;;;12.86;77.02;99717.03;5073804;28;19924;-70
2021/09/04 03:38:16;;;;;;;;;;;;;;;12.80;76.92;99725.59;5073929;28;19932;-71
2021/09/04 03:40:45;;;;;;;;;;;;;;;12.79;77.41;99722.19;5073659;28;20015;-71
2021/09/04 03:43:16;;;;;;;;;;;;;;;12.82;77.18;99721.31;5074024;28;20015;-71
2021/09/04 03:45:44;;;;;;;;;;;;;;;12.76;77.10;99729.06;5073686;28;19925;-70
2021/09/04 03:48:14;;;;;;;;;;;;;;;12.79;77.39;99729.03;5073530;28;19929;-70
2021/09/04 03:50:43;;;;;;;;;;;;;;;12.78;77.46;99727.34;5073764;28;19924;-70
2021/09/04 03:53:12;;;;;;;;;;;;;;;12.74;77.35;99736.75;5074164;28;19928;-71
2021/09/04 03:55:41;;;;;;;;;;;;;;;12.74;77.56;99731.63;5073432;28;19934;-71
2021/09/04 03:58:09;;;;;;;;;;;;;;;12.77;77.43;99733.31;5073711;28;20016;-70
2021/09/04 04:00:40;;;;;;;;;;;;;;;12.79;77.46;99734.13;5073499;28;20362;-71
2021/09/04 04:03:10;;;;;;;;;;;;;;;12.77;77.56;99738.44;5073578;28;19931;-70
2021/09/04 04:05:38;;;;;;;;;;;;;;;12.77;77.58;99731.59;5073339;28;20007;-70
2021/09/04 04:08:07;;;;;;;;;;;;;;;12.79;77.69;99735.00;5077140;28;20363;-70
2021/09/04 04:10:36;;;;;;;;;;;;;;;12.78;77.77;99732.47;5077438;28;19931;-70
2021/09/04 04:13:05;;;;;;;;;;;;;;;12.77;77.70;99730.75;5076940;28;19968;-70
2021/09/04 04:15:34;;;;;;;;;;;;;;;12.79;77.79;99729.03;5076993;28;19924;-71
2021/09/04 04:18:04;;;;;;;;;;;;;;;12.78;77.72;99727.34;5077022;28;20313;-70
2021/09/04 04:20:33;;;;;;;;;;;;;;;12.80;77.68;99725.59;5077001;28;19924;-70
2021/09/04 04:23:04;;;;;;;;;;;;;;;12.78;77.64;99727.34;5076913;28;19931;-70
2021/09/04 04:25:32;;;;;;;;;;;;;;;12.80;77.78;99730.72;5076783;28;19994;-70
2021/09/04 04:28:03;;;;;;;;;;;;;;;12.79;78.10;99736.69;5076721;28;19925;-70
2021/09/04 04:30:31;;;;;;;;;;;;;;;12.79;77.89;99741.81;5076726;28;20300;-71
2021/09/04 04:33:01;;;;;;;;;;;;;;;12.80;78.12;99746.09;5058704;28;20336;-70
2021/09/04 04:35:33;;;;;;;;;;;;;;;12.76;78.30;99749.56;5076976;28;19928;-70
2021/09/04 04:38:02;;;;;;;;;;;;;;;12.76;78.60;99744.44;5076598;28;19925;-70
2021/09/04 04:40:30;;;;;;;;;;;;;;;12.80;78.79;99738.41;5076418;28;19924;-70
2021/09/04 04:43:02;;;;;;;;;;;;;;;12.88;78.65;99739.22;5076546;28;19925;-71
2021/09/04 04:45:30;;;;;;;;;;;;;;;12.94;78.94;99749.38;5076453;28;19944;-70
2021/09/04 04:48:00;;;;;;;;;;;;;;;12.99;78.54;99749.34;5076324;28;20445;-70
2021/09/04 04:50:28;;;;;;;;;;;;;;;12.99;78.89;99747.63;5076356;28;19924;-70
2021/09/04 04:52:59;;;;;;;;;;;;;;;13.04;78.76;99740.75;5076254;28;20362;-70
2021/09/04 04:55:29;;;;;;;;;;;;;;;13.07;78.80;99745.88;5076083;28;19978;-70
2021/09/04 04:57:59;;;;;;;;;;;;;;;13.07;78.33;99743.31;5076190;28;20286;-71
2021/09/04 05:00:30;;;;;;;;;;;;;;;13.11;78.26;99747.53;5076246;28;20267;-70
2021/09/04 05:02:59;;;;;;;;;;;;;;;13.22;78.71;99740.59;5076154;28;19925;-70
2021/09/04 05:05:29;;;;;;;;;;;;;;;13.34;78.37;99740.47;5076710;28;19924;-70
2021/09/04 05:08:02;;;;;;;;;;;;;;;13.38;78.41;99742.13;5076359;28;20299;-70
2021/09/04 05:10:32;;;;;;;;;;;;;;;13.50;78.20;99740.28;5075052;28;19974;-70
2021/09/04 05:13:01;;;;;;;;;;;;;;;13.58;78.49;99741.06;5075898;28;20353;-70
2021/09/04 05:15:30;;;;;;;;;;;;;;;13.62;78.39;99746.13;5076015;28;19925;-70
2021/09/04 05:17:59;;;;;;;;;;;;;;;13.72;78.02;99746.88;5075363;28;19931;-70
2021/09/04 05:20:29;;;;;;;;;;;;;;;13.80;78.12;99738.19;5075771;28;19924;-70
2021/09/04 05:22:57;;;;;;;;;;;;;;;13.90;78.12;99741.50;5075781;28;20015;-70
2021/09/04 05:25:27;;;;;;;;;;;;;;;13.99;77.83;99751.63;5075701;28;19970;-70
2021/09/04 05:27:56;;;;;;;;;;;;;;;14.06;78.12;99746.41;5075951;28;20435;-70
2021/09/04 05:30:25;;;;;;;;;;;;;;;14.18;77.82;99753.06;5075564;28;20328;-70
2021/09/04 05:32:55;;;;;;;;;;;;;;;14.27;77.58;99747.81;5075501;28;20035;-70
2021/09/04 05:35:23;;;;;;;;;;;;;;;14.34;77.37;99739.19;5075513;28;19931;-70
2021/09/04 05:37:52;;;;;;;;;;;;;;;14.42;77.10;99742.47;5075464;28;19925;-70
2021/09/04 05:40:22;;;;;;;;;;;;;;;14.48;77.10;99742.41;5075336;28;20378;-70
2021/09/04 05:42:52;;;;;;;;;;;;;;;14.57;76.56;99737.09;5075326;28;19925;-70
2021/09/04 05:45:21;;;;;;;;;;;;;;;14.67;76.69;99733.53;5075358;28;19971;-71
2021/09/04 05:47:49;;;;;;;;;;;;;;;14.82;76.06;99736.72;5075548;28;19970;-71
2021/09/04 05:50:18;;;;;;;;;;;;;;;14.91;76.43;99741.69;5075145;28;20335;-71
2021/09/04 05:52:47;;;;;;;;;;;;;;;15.01;76.35;99738.09;5075070;28;19924;-70
2021/09/04 05:55:15;;;;;;;;;;;;;;;15.10;75.86;99733.63;5074879;28;19924;-70
2021/09/04 05:57:44;;;;;;;;;;;;;;;15.18;75.79;99743.78;5057206;28;19924;-71
2021/09/04 06:00:15;;;;;;;;;;;;;;;15.28;75.14;99747.88;5075203;28;19950;-71
2021/09/04 06:02:44;;;;;;;;;;;;;;;15.33;74.51;99751.22;5074931;28;20337;-71
2021/09/04 06:05:12;;;;;;;;;;;;;;;15.40;74.50;99750.22;5074901;28;20019;-70
2021/09/04 06:07:41;;;;;;;;;;;;;;;15.52;74.40;99752.59;5073981;28;19924;-70
2021/09/04 06:10:10;;;;;;;;;;;;;;;15.67;74.27;99756.59;5074750;28;19924;-70
2021/09/04 06:12:39;;;;;;;;;;;;;;;15.75;73.54;99747.81;5074918;28;20430;-71
2021/09/04 06:15:08;;;;;;;;;;;;;;;15.85;73.55;99753.63;5074906;28;20397;-70
2021/09/04 06:17:38;;;;;;;;;;;;;;;15.97;73.27;99751.66;5074565;28;20409;-70
2021/09/04 06:20:08;;;;;;;;;;;;;;;16.09;73.11;99753.09;5074350;28;20023;-71
2021/09/04 06:22:37;;;;;;;;;;;;;;;16.15;72.71;99750.38;5074438;28;19925;-70
2021/09/04 06:25:06;;;;;;;;;;;;;;;16.26;72.75;99745.84;5074340;28;19978;-71
2021/09/04 06:27:36;;;;;;;;;;;;;;;16.41;72.17;99749.81;5074440;28;19932;-70
2021/09/04 06:30:05;;;;;;;;;;;;;;;16.52;72.20;99740.13;5073621;28;19932;-70
2021/09/04 06:32:34;;;;;;;;;;;;;;;16.61;71.83;99745.03;5074306;28;19924;-70
2021/09/04 06:35:04;;;;;;;;;;;;;;;16.68;71.58;99749.16;5074372;28;19967;-70
2021/09/04 06:37:33;;;;;;;;;;;;;;;16.73;71.19;99745.59;5074341;28;19967;-71
2021/09/04 06:40:02;;;;;;;;;;;;;;;16.81;70.77;99748.00;5074284;28;19924;-71
2021/09/04 06:42:31;;;;;;;;;;;;;;;16.90;70.81;99747.75;5074116;28;19924;-70
2021/09/04 06:45:00;;;;;;;;;;;;;;;16.96;70.35;99742.47;5074121;28;19956;-71
2021/09/04 06:47:28;;;;;;;;;;;;;;;17.10;70.29;99745.53;5074487;28;19924;-70
2021/09/04 06:49:57;;;;;;;;;;;;;;;17.27;70.45;99745.94;5074092;28;19960;-70
2021/09/04 06:52:28;;;;;;;;;;;;;;;17.41;69.95;99751.56;5074060;28;19925;-70
2021/09/04 06:54:57;;;;;;;;;;;;;;;17.53;69.61;99749.56;5069325;28;19932;-70
2021/09/04 06:57:25;;;;;;;;;;;;;;;17.64;69.39;99752.66;5054003;28;19925;-70
2021/09/04 06:59:54;;;;;;;;;;;;;;;17.74;69.13;99756.69;5054179;28;19950;-71
2021/09/04 07:02:23;;;;;;;;;;;;;;;17.82;69.03;99753.00;5053933;28;20400;-70
2021/09/04 07:04:52;;;;;;;;;;;;;;;17.93;68.43;99750.94;5053980;28;20329;-71
2021/09/04 07:07:21;;;;;;;;;;;;;;;18.06;68.20;99754.88;5053926;28;19932;-70
2021/09/04 07:09:51;;;;;;;;;;;;;;;18.18;67.79;99753.66;5053967;28;19925;-70
2021/09/04 07:12:20;;;;;;;;;;;;;;;18.29;67.34;99763.66;5053947;28;19952;-70
2021/09/04 07:14:49;;;;;;;;;;;;;;;18.39;67.17;99760.75;5054074;28;19929;-70
2021/09/04 07:17:17;;;;;;;;;;;;;;;18.49;66.77;99761.34;5054177;28;20377;-70
2021/09/04 07:19:47;;;;;;;;;;;;;;;18.57;66.56;99760.19;5053758;28;19975;-70
2021/09/04 07:22:16;;;;;;;;;;;;;;;18.60;66.21;99760.09;5053635;28;19940;-71
2021/09/04 07:24:44;;;;;;;;;;;;;;;18.68;65.92;99762.44;5053748;28;19929;-71
2021/09/04 07:27:14;;;;;;;;;;;;;;;18.75;65.78;99766.50;5053668;28;20023;-70
2021/09/04 07:29:43;;;;;;;;;;;;;;;18.91;65.64;99764.28;5053783;28;19929;-72
2021/09/04 07:32:11;;;;;;;;;;;;;;;19.07;65.74;99770.63;5053631;28;19925;-72
2021/09/04 07:34:40;;;;;;;;;;;;;;;19.16;65.35;99765.13;5053712;28;19925;-72
2021/09/04 07:37:09;;;;;;;;;;;;;;;19.26;64.99;99766.53;5053746;28;19925;-72
2021/09/04 07:39:37;;;;;;;;;;;;;;;19.33;64.75;99762.81;5053512;28;20382;-72
2021/09/04 07:42:06;;;;;;;;;;;;;;;19.44;64.59;99770.22;5055604;28;19924;-72
2021/09/04 07:44:36;;;;;;;;;;;;;;;19.56;64.34;99775.81;5057918;28;19936;-72
2021/09/04 07:47:05;;;;;;;;;;;;;;;19.73;64.05;99768.28;5057575;28;19929;-72
2021/09/04 07:49:33;;;;;;;;;;;;;;;19.87;64.19;99768.63;5057421;28;20020;-72
2021/09/04 07:52:02;;;;;;;;;;;;;;;19.98;64.69;99769.09;5057331;28;20291;-71
2021/09/04 07:54:31;;;;;;;;;;;;;;;20.12;63.79;99771.16;5065292;28;20289;-71
2021/09/04 07:57:01;;;;;;;;;;;;;;;20.24;63.14;99764.69;5077322;28;19932;-71
2021/09/04 07:59:29;;;;;;;;;;;;;;;20.36;62.85;99772.84;5077174;28;20003;-72
2021/09/04 08:02:00;;;;;;;;;;;;;;;20.46;62.09;99775.91;5077169;28;19928;-73
2021/09/04 08:04:29;;;;;;;;;;;;;;;20.53;61.66;99772.16;5077030;28;19925;-72
2021/09/04 08:06:58;;;;;;;;;;;;;;;20.52;60.78;99773.06;5077045;28;19968;-70
2021/09/04 08:09:26;;;;;;;;;;;;;;;20.73;60.82;99779.16;5077387;28;20393;-70
2021/09/04 08:11:59;;;;;;;;;;;;;;;20.91;60.32;99768.88;5077282;28;20297;-71
2021/09/04 08:14:27;;;;;;;;;;;;;;;21.10;60.23;99769.81;5076933;28;20428;-72
2021/09/04 08:16:57;;;;;;;;;;;;;;;21.28;59.94;99769.03;5076830;28;19924;-70
2021/09/04 08:19:27;;;;;;;;;;;;;;;21.49;59.87;99771.63;5076866;28;19934;-71
2021/09/04 08:21:55;;;;;;;;;;;;;;;21.60;59.02;99765.03;5076972;28;20466;-70
2021/09/04 08:24:24;;;;;;;;;;;;;;;21.66;58.05;99763.91;5077084;28;19924;-70
2021/09/04 08:26:52;;;;;;;;;;;;;;;21.70;57.02;99761.13;5077109;28;19987;-71
2021/09/04 08:29:21;;;;;;;;;;;;;;;21.78;56.40;99755.56;5076601;28;20301;-73
2021/09/04 08:31:50;;;;;;;;;;;;;;;21.93;55.81;99757.53;5076724;28;19931;-73
2021/09/04 08:34:19;;;;;;;;;;;;;;;22.00;55.09;99758.94;5076318;28;19943;-73
2021/09/04 08:36:49;;;;;;;;;;;;;;;22.02;54.44;99757.09;5076635;28;20018;-73
2021/09/04 08:39:18;;;;;;;;;;;;;;;22.07;54.16;99760.34;5076575;28;19924;-72
2021/09/04 08:41:46;;;;;;;;;;;;;;;22.19;53.66;99764.97;5076494;28;19924;-71
2021/09/04 08:44:15;;;;;;;;;;;;;;;22.38;53.53;99755.38;5076447;28;19977;-71
2021/09/04 08:46:44;;;;;;;;;;;;;;;22.39;53.57;99766.59;5076321;28;19986;-71
2021/09/04 08:49:14;;;;;;;;;;;;;;;22.48;53.12;99767.00;5075524;28;20027;-71
2021/09/04 08:51:43;;;;;;;;;;;;;;;22.60;52.93;99771.63;5076385;28;20015;-71
2021/09/04 08:54:16;;;;;;;;;;;;;;;22.71;52.68;99768.53;5074993;28;19925;-71
2021/09/04 08:56:45;;;;;;;;;;;;;;;22.89;52.67;99764.22;5076530;28;19931;-72
2021/09/04 08:59:14;;;;;;;;;;;;;;;22.96;52.09;99757.78;5076491;28;20014;-71
2021/09/04 09:01:45;;;;;;;;;;;;;;;23.01;51.38;99750.56;5076409;28;19925;-71
2021/09/04 09:04:16;;;;;;;;;;;;;;;23.06;51.04;99756.41;5076182;28;19929;-71
2021/09/04 09:06:46;;;;;;;;;;;;;;;23.29;52.11;99756.06;5076055;28;20015;-72
2021/09/04 09:09:17;;;;;;;;;;;;;;;23.47;52.56;99755.13;5075830;28;19924;-72
2021/09/04 09:11:46;;;;;;;;;;;;;;;23.65;52.53;99748.97;5075925;28;19932;-71
2021/09/04 09:14:15;;;;;;;;;;;;;;;23.60;51.49;99750.13;5075937;28;19924;-73
2021/09/04 09:16:52;;;;;;;;;;;;;;;23.62;50.71;99743.91;5091052;28;19924;-74
2021/09/04 09:19:22;;;;;;;;;;;;;;;23.58;50.18;99742.41;5076255;28;19924;-74
2021/09/04 09:21:51;;;;;;;;;;;;;;;23.67;50.05;99736.69;5075914;28;19950;-72
2021/09/04 09:24:21;;;;;;;;;;;;;;;23.80;50.70;99737.69;5075933;28;19925;-73
2021/09/04 09:26:51;;;;;;;;;;;;;;;24.05;51.56;99731.16;5075730;28;19924;-73
2021/09/04 09:29:20;;;;;;;;;;;;;;;24.23;50.49;99733.66;5075572;28;19977;-73
2021/09/04 09:31:49;;;;;;;;;;;;;;;24.25;49.32;99723.09;5075604;28;20043;-73
2021/09/04 09:34:18;;;;;;;;;;;;;;;24.26;48.72;99722.19;5075538;28;19954;-72
2021/09/04 09:36:48;;;;;;;;;;;;;;;24.28;48.63;99728.16;5075688;28;20294;-71
2021/09/04 09:39:16;;;;;;;;;;;;;;;24.33;48.79;99737.41;5075306;28;19935;-72
2021/09/04 09:41:50;;;;;;;;;;;;;;;24.36;48.35;99736.38;5075354;28;19963;-72
2021/09/04 09:44:20;;;;;;;;;;;;;;;24.34;48.07;99739.09;5075396;28;20015;-72
2021/09/04 09:46:49;;;;;;;;;;;;;;;24.24;48.22;99737.91;5075549;28;20309;-71
2021/09/04 09:49:18;;;;;;;;;;;;;;;24.25;48.92;99730.94;5075916;28;19950;-72
2021/09/04 09:51:46;;;;;;;;;;;;;;;24.31;48.71;99727.97;5075398;28;19963;-72
2021/09/04 09:54:15;;;;;;;;;;;;;;;24.43;48.28;99728.13;5074784;28;19946;-72
2021/09/04 09:56:44;;;;;;;;;;;;;;;24.54;48.16;99715.31;5073759;28;19924;-72
2021/09/04 09:59:17;;;;;;;;;;;;;;;24.58;47.58;99715.97;5074908;28;19970;-74
2021/09/04 10:01:47;;;;;;;;;;;;;;;24.74;47.52;99716.75;5074945;28;19924;-74
2021/09/04 10:04:17;;;;;;;;;;;;;;;24.92;46.45;99714.91;5074953;28;19931;-73
2021/09/04 10:06:46;;;;;;;;;;;;;;;24.98;46.41;99715.38;5074911;28;19925;-73
2021/09/04 10:09:14;;;;;;;;;;;;;;;25.17;47.36;99715.13;5074809;28;19925;-73
2021/09/04 10:11:43;;;;;;;;;;;;;;;25.30;45.74;99711.69;5074732;28;19925;-73
2021/09/04 10:14:12;;;;;;;;;;;;;;;25.33;44.30;99704.59;5074613;28;19977;-74
2021/09/04 10:16:44;;;;;;;;;;;;;;;25.28;43.54;99703.09;5074624;28;20379;-73
2021/09/04 10:19:16;;;;;;;;;;;;;;;25.37;44.52;99699.06;5074718;28;19928;-72
2021/09/04 10:21:45;;;;;;;;;;;;;;;25.54;45.84;99706.75;5074511;28;19931;-72
2021/09/04 10:24:14;;;;;;;;;;;;;;;25.70;44.77;99701.41;5074523;28;19954;-72
2021/09/04 10:26:43;;;;;;;;;;;;;;;25.79;43.88;99703.47;5056463;28;20332;-72
2021/09/04 10:29:12;;;;;;;;;;;;;;;25.86;43.25;99702.16;5074439;28;19932;-72
2021/09/04 10:31:44;;;;;;;;;;;;;;;25.83;42.80;99710.19;5074457;28;19924;-73
2021/09/04 10:34:14;;;;;;;;;;;;;;;25.75;42.71;99707.19;5074772;28;19932;-73
2021/09/04 10:36:57;;;;;;;;;;;;;;;25.59;42.74;99711.69;5074352;28;19975;-73
2021/09/04 10:39:46;;;;;;;;;;;;;;;25.63;43.60;99710.56;5073637;28;19929;-74
2021/09/04 10:42:15;;;;;;;;;;;;;;;25.45;42.76;99703.88;5074279;28;19924;-74
2021/09/04 10:44:45;;;;;;;;;;;;;;;25.19;43.25;99708.03;5074580;28;20019;-74
2021/09/04 10:47:15;;;;;;;;;;;;;;;24.96;43.88;99706.78;5074285;28;20382;-74
2021/09/04 10:49:45;;;;;;;;;;;;;;;25.08;44.77;99705.22;5074251;28;19995;-75
2021/09/04 10:52:14;;;;;;;;;;;;;;;25.36;44.75;99704.41;5074160;28;19924;-75
2021/09/04 10:55:00;;;;;;;;;;;;;;;25.71;45.56;99705.72;5073763;28;20400;-75
2021/09/04 10:57:44;;;;;;;;;;;;;;;25.92;44.03;99704.38;5074517;28;20027;-75
2021/09/04 11:00:24;;;;;;;;;;;;;;;25.98;44.10;99698.75;5074086;28;20007;-75
2021/09/04 11:03:03;;;;;;;;;;;;;;;26.11;43.26;99702.28;5074073;28;19928;-74
2021/09/04 11:05:42;;;;;;;;;;;;;;;26.34;42.82;99701.66;5074139;28;19974;-75
2021/09/04 11:08:26;;;;;;;;;;;;;;;26.53;43.07;99702.16;5073967;28;19932;-75
2021/09/04 11:11:06;;;;;;;;;;;;;;;26.51;43.70;99698.75;5074057;28;19924;-74
2021/09/04 11:13:39;;;;;;;;;;;;;;;26.52;44.59;99700.44;5089527;28;19924;-74
2021/09/04 11:16:28;;;;;;;;;;;;;;;26.24;44.76;99697.97;5073400;28;19951;-75
2021/09/04 11:19:03;;;;;;;;;;;;;;;25.94;45.61;99708.56;5064741;28;20384;-74
2021/09/04 11:21:34;;;;;;;;;;;;;;;25.59;46.69;99711.69;5055931;28;19924;-75
2021/09/04 11:24:03;;;;;;;;;;;;;;;25.18;45.18;99717.66;5074192;28;20023;-75
2021/09/04 11:26:32;;;;;;;;;;;;;;;25.09;46.21;99706.91;5073678;28;19924;-74
2021/09/04 11:29:00;;;;;;;;;;;;;;;25.33;46.20;99721.13;5073706;28;19925;-74
2021/09/04 11:31:29;;;;;;;;;;;;;;;25.34;45.42;99707.09;5073781;28;20449;-75
2021/09/04 11:33:58;;;;;;;;;;;;;;;25.16;45.39;99714.28;5073690;28;19925;-74
2021/09/04 11:36:32;;;;;;;;;;;;;;;25.13;45.62;99714.47;5073659;28;20267;-74
2021/09/04 11:39:01;;;;;;;;;;;;;;;24.96;45.71;99712.00;5073567;28;19928;-74
2021/09/04 11:41:30;;;;;;;;;;;;;;;24.85;47.81;99711.81;5073663;28;19974;-74
2021/09/04 11:43:58;;;;;;;;;;;;;;;24.67;48.21;99700.63;5073468;28;19970;-75
2021/09/04 11:46:27;;;;;;;;;;;;;;;24.59;47.65;99702.00;5073505;28;19974;-74
2021/09/04 11:48:56;;;;;;;;;;;;;;;24.59;47.04;99702.00;5073616;28;19932;-74
2021/09/04 11:51:25;;;;;;;;;;;;;;;24.60;46.56;99701.06;5073524;28;20331;-74
2021/09/04 11:54:01;;;;;;;;;;;;;;;24.61;47.22;99697.53;5073278;28;20027;-75
2021/09/04 11:56:32;;;;;;;;;;;;;;;24.87;47.26;99696.03;5073366;28;19994;-74
2021/09/04 11:59:07;;;;;;;;;;;;;;;25.22;45.29;99703.44;5073447;28;19930;-75
2021/09/04 12:01:36;;;;;;;;;;;;;;;25.54;44.55;99698.06;5074121;28;19925;-75
2021/09/04 12:04:05;;;;;;;;;;;;;;;25.82;43.53;99692.78;5073406;28;19978;-75
2021/09/04 12:06:35;;;;;;;;;;;;;;;25.96;42.34;99691.00;5073387;28;19925;-75
2021/09/04 12:09:06;;;;;;;;;;;;;;;26.15;42.31;99695.94;5073304;28;19924;-75
2021/09/04 12:11:36;;;;;;;;;;;;;;;26.41;41.86;99683.78;5073378;28;20286;-75
2021/09/04 12:14:05;;;;;;;;;;;;;;;26.63;41.49;99685.81;5073312;28;19932;-75
2021/09/04 12:16:34;;;;;;;;;;;;;;;26.94;41.21;99680.22;5073229;28;19973;-74
2021/09/04 12:19:16;;;;;;;;;;;;;;;27.01;40.81;99687.56;5073924;28;19925;-74
2021/09/04 12:21:50;;;;;;;;;;;;;;;27.25;40.60;99682.44;5073201;28;20442;-74
2021/09/04 12:24:30;;;;;;;;;;;;;;;27.45;40.18;99684.53;5073314;28;19947;-74
2021/09/04 12:26:59;;;;;;;;;;;;;;;27.47;39.96;99680.03;5073308;28;19928;-75
2021/09/04 12:29:28;;;;;;;;;;;;;;;27.55;39.63;99675.06;5075610;28;19979;-75
2021/09/04 12:32:06;;;;;;;;;;;;;;;27.68;39.83;99662.78;5076768;28;20286;-74
2021/09/04 12:34:35;;;;;;;;;;;;;;;27.89;40.02;99661.22;5076576;28;20305;-73
2021/09/04 12:37:05;;;;;;;;;;;;;;;28.09;39.28;99666.84;5076573;28;20305;-72
2021/09/04 12:39:35;;;;;;;;;;;;;;;28.06;38.65;99669.69;5076814;28;20015;-72
2021/09/04 12:42:05;;;;;;;;;;;;;;;27.68;38.34;99673.28;5076541;28;19928;-72
2021/09/04 12:44:38;;;;;;;;;;;;;;;27.50;39.21;99674.56;5076617;28;19924;-72
2021/09/04 12:47:07;;;;;;;;;;;;;;;27.61;39.66;99672.03;5076505;28;19925;-72
2021/09/04 12:49:37;;;;;;;;;;;;;;;27.88;39.47;99670.03;5076453;28;20015;-72
2021/09/04 12:52:08;;;;;;;;;;;;;;;27.93;39.05;99667.09;5076191;28;20397;-73
2021/09/04 12:54:40;;;;;;;;;;;;;;;27.80;38.24;99661.06;5076072;28;20290;-72
2021/09/04 12:57:12;;;;;;;;;;;;;;;27.65;38.75;99672.63;5076310;28;19924;-73
2021/09/04 12:59:44;;;;;;;;;;;;;;;27.74;38.71;99657.06;5076484;28;19928;-72
2021/09/04 13:02:14;;;;;;;;;;;;;;;27.90;39.49;99656.84;5076199;28;19924;-73